Canefield Airport

Fair with haze
30oC (86oF)

Fair with haze


Winds: Easterly @ 06kts / 11km/h

Humidity: 61%

Barometric Pressure: 1015 mb

Accumulated Rainfall for January: 168.2 mm

Updated: 11:00 local time (15:00 UTC)

Douglas-Charles Airport

Cloudy with adjacent showers
27oC (81oF)

Cloudy with adjacent showers


Winds: Easterly @ 09kts / 17km/h

Humidity: 82%

Barometric Pressure: 1017 mb

Accumulated Rainfall for January: 176.6 mm

Updated: 11:00 local time (15:00 UTC)

Satellite Imagery

Satellite Imagery
Click image for larger view. (Source: National Hurricane Center).

Aviation Routine Report (METAR)

Douglas-Charles: METAR TDPD 161500Z 09009KT 9999 SCT016 SCT032 27/24 Q1017=
Canefield: METAR TDCF 161500Z 10006KT 9999 FEW016 30/21 Q1015=